createdAt,value
2023-05-15T00:01:27.127Z,76.90
2023-05-15T00:03:55.091Z,77.70
2023-05-15T00:06:21.957Z,77.30
2023-05-15T00:08:48.655Z,79.00
2023-05-15T00:11:15.734Z,78.50
2023-05-15T00:13:42.418Z,80.70
2023-05-15T00:16:09.520Z,81.60
2023-05-15T00:18:36.340Z,80.80
2023-05-15T00:21:03.060Z,81.30
2023-05-15T00:23:29.813Z,81.20
2023-05-15T00:25:56.492Z,81.90
2023-05-15T00:28:23.192Z,81.60
2023-05-15T00:30:50.017Z,81.90
2023-05-15T00:53:03.754Z,83.20
2023-05-15T00:55:31.322Z,83.60
2023-05-15T00:58:48.489Z,84.20
2023-05-15T01:01:16.201Z,84.40
2023-05-15T01:03:43.800Z,85.10
2023-05-15T01:06:51.473Z,84.30
2023-05-15T01:09:18.389Z,84.20
2023-05-15T01:14:12.792Z,84.90
2023-05-15T01:17:55.863Z,84.80
2023-05-15T01:20:22.689Z,84.00
2023-05-15T01:34:04.035Z,82.80
2023-05-15T01:40:20.632Z,82.20
2023-05-15T01:50:40.133Z,81.10
2023-05-15T01:56:45.243Z,82.00
2023-05-15T02:00:48.217Z,81.40
2023-05-15T02:06:33.566Z,81.10
2023-05-15T02:21:09.321Z,81.20
2023-05-15T02:36:03.653Z,82.80
2023-05-15T02:51:15.478Z,82.70
2023-05-15T03:05:44.293Z,82.00
2023-05-15T03:09:39.017Z,80.40
2023-05-15T03:18:23.517Z,82.50
2023-05-15T03:23:39.925Z,81.10
2023-05-15T03:27:04.851Z,82.20
2023-05-15T03:29:31.676Z,83.10
2023-05-15T03:31:58.529Z,83.40
2023-05-15T03:34:25.315Z,83.20
2023-05-15T03:38:30.315Z,83.40
2023-05-15T03:47:16.563Z,81.50
2023-05-15T03:49:43.297Z,82.70
2023-05-15T03:54:05.870Z,80.60
2023-05-15T03:56:32.831Z,82.90
2023-05-15T03:59:42.073Z,82.90
2023-05-15T04:07:38.269Z,82.60
2023-05-15T04:11:07.323Z,82.30
2023-05-15T04:14:49.324Z,83.10
2023-05-15T04:17:16.045Z,82.40
2023-05-15T04:19:43.181Z,81.90
2023-05-15T04:23:56.009Z,81.90
2023-05-15T04:26:22.809Z,84.90
2023-05-15T04:33:12.094Z,83.70
2023-05-15T04:39:35.087Z,87.20
2023-05-15T04:42:35.694Z,87.00
2023-05-15T04:47:19.758Z,84.00
2023-05-15T04:49:48.122Z,84.10
2023-05-15T04:54:11.562Z,86.50
2023-05-15T05:01:20.694Z,85.30
2023-05-15T05:06:40.272Z,83.60
2023-05-15T05:24:04.135Z,87.70
2023-05-15T05:35:49.966Z,90.10
2023-05-15T05:38:16.659Z,89.90
2023-05-15T05:47:03.317Z,90.50
2023-05-15T05:49:30.146Z,90.40
2023-05-15T05:51:56.853Z,90.50
2023-05-15T05:57:00.772Z,90.50
2023-05-15T06:00:25.703Z,90.60
2023-05-15T06:02:57.555Z,90.50
2023-05-15T06:05:25.881Z,91.30
2023-05-15T06:07:53.551Z,91.70
2023-05-15T06:11:49.278Z,91.40
2023-05-15T06:14:16.091Z,92.60
2023-05-15T06:18:34.707Z,91.40
2023-05-15T06:21:01.562Z,91.30
2023-05-15T06:23:28.595Z,91.70
2023-05-15T06:25:55.307Z,91.90
2023-05-15T06:28:22.033Z,91.50
2023-05-15T06:30:48.813Z,90.90
2023-05-15T06:33:15.621Z,91.20
2023-05-15T06:37:16.164Z,91.40
2023-05-15T06:39:43.084Z,90.50
2023-05-15T06:48:14.699Z,90.60
2023-05-15T06:50:41.570Z,88.90
2023-05-15T06:53:08.413Z,87.90
2023-05-15T06:55:36.542Z,86.50
2023-05-15T06:58:03.324Z,87.20
2023-05-15T07:00:30.048Z,87.60
2023-05-15T07:02:57.320Z,86.10
2023-05-15T07:07:08.289Z,84.50
2023-05-15T07:09:35.562Z,84.40
2023-05-15T07:12:02.324Z,86.30
2023-05-15T07:15:49.023Z,83.70
2023-05-15T07:18:15.826Z,84.00
2023-05-15T07:22:56.948Z,74.20
2023-05-15T07:26:40.742Z,63.60
2023-05-15T07:31:08.559Z,44.00
2023-05-15T07:33:35.314Z,45.80
2023-05-15T07:36:02.048Z,42.90
2023-05-15T07:41:58.202Z,41.50
2023-05-15T07:44:24.950Z,41.50
2023-05-15T07:46:51.700Z,38.70
2023-05-15T07:51:15.844Z,30.80
2023-05-15T07:53:42.567Z,31.00
2023-05-15T07:56:09.332Z,31.60
2023-05-15T07:58:38.334Z,31.40
2023-05-15T08:01:05.973Z,33.60
2023-05-15T08:04:52.309Z,38.50
2023-05-15T08:07:19.165Z,42.40
2023-05-15T08:09:46.402Z,42.70
2023-05-15T08:12:22.077Z,41.20
2023-05-15T08:14:55.193Z,31.10
2023-05-15T08:17:22.246Z,31.00
2023-05-15T08:19:49.085Z,29.90
2023-05-15T08:22:15.910Z,28.10
2023-05-15T08:24:42.792Z,30.50
2023-05-15T08:27:09.629Z,30.80
2023-05-15T08:29:39.238Z,37.60
2023-05-15T08:32:07.795Z,34.70
2023-05-15T08:34:34.695Z,35.50
2023-05-15T08:37:01.822Z,35.40
2023-05-15T08:39:28.880Z,37.80
2023-05-15T08:42:24.901Z,38.30
2023-05-15T08:44:51.688Z,40.70
2023-05-15T08:47:19.458Z,37.30
2023-05-15T08:50:00.790Z,36.90
2023-05-15T08:52:27.797Z,36.70
2023-05-15T08:54:54.848Z,35.50
2023-05-15T08:57:21.649Z,32.90
2023-05-15T08:59:48.769Z,28.80
2023-05-15T09:04:20.998Z,26.70
2023-05-15T09:06:47.926Z,26.20
2023-05-15T09:09:14.659Z,23.50
2023-05-15T09:11:44.986Z,24.60
2023-05-15T09:16:39.219Z,20.60
2023-05-15T09:19:06.953Z,18.10
2023-05-15T09:21:33.810Z,15.60
2023-05-15T09:24:17.272Z,6.20
2023-05-15T09:26:44.849Z,1.00
2023-05-15T09:29:11.854Z,1.00
2023-05-15T09:31:38.607Z,1.00
2023-05-15T09:34:06.486Z,1.00
2023-05-15T09:36:33.186Z,1.00
2023-05-15T09:39:00.630Z,1.00
2023-05-15T09:41:27.946Z,1.00
2023-05-15T09:43:56.598Z,1.00
2023-05-15T09:46:23.994Z,1.00
2023-05-15T09:48:54.964Z,1.00
2023-05-15T09:51:22.178Z,1.00
2023-05-15T09:53:50.735Z,1.00
2023-05-15T09:56:17.813Z,1.00
2023-05-15T09:58:58.031Z,1.00
2023-05-15T10:01:25.245Z,1.00
2023-05-15T10:04:03.223Z,1.00
2023-05-15T10:06:41.254Z,1.00
2023-05-15T10:09:10.461Z,1.00
2023-05-15T10:11:50.380Z,1.00
2023-05-15T10:14:17.111Z,1.00
2023-05-15T10:16:44.133Z,1.00
2023-05-15T10:19:11.573Z,1.00
2023-05-15T10:21:39.679Z,1.00
2023-05-15T10:24:07.085Z,1.00
2023-05-15T10:26:38.055Z,1.00
2023-05-15T10:29:09.968Z,1.00
2023-05-15T10:31:36.898Z,1.00
2023-05-15T10:34:04.407Z,1.00
2023-05-15T10:36:35.058Z,1.00
2023-05-15T10:39:03.230Z,1.00
2023-05-15T10:41:30.693Z,1.00
2023-05-15T10:44:00.942Z,1.00
2023-05-15T10:46:32.191Z,1.00
2023-05-15T10:48:59.319Z,1.00
2023-05-15T10:51:27.745Z,1.00
2023-05-15T10:53:55.234Z,1.00
2023-05-15T10:56:26.214Z,1.00
2023-05-15T10:58:54.338Z,1.00
2023-05-15T11:01:35.284Z,1.00
2023-05-15T11:04:08.087Z,1.00
2023-05-15T11:06:35.266Z,1.00
2023-05-15T11:09:25.885Z,1.00
2023-05-15T11:11:55.946Z,1.00
2023-05-15T11:14:26.313Z,1.00
2023-05-15T11:16:53.495Z,1.00
2023-05-15T11:19:29.479Z,1.00
2023-05-15T11:21:59.778Z,1.00
2023-05-15T11:24:51.271Z,1.00
2023-05-15T11:27:22.990Z,1.00
2023-05-15T11:30:22.490Z,1.00
2023-05-15T11:33:03.047Z,1.00
2023-05-15T11:35:30.801Z,1.00
2023-05-15T11:38:01.643Z,1.00
2023-05-15T11:40:29.857Z,1.00
2023-05-15T11:43:07.235Z,1.00
2023-05-15T11:45:38.105Z,1.80
2023-05-15T11:48:06.774Z,1.00
2023-05-15T11:50:34.309Z,4.00
2023-05-15T11:53:05.134Z,2.20
2023-05-15T11:55:33.292Z,2.90
2023-05-15T11:58:00.645Z,6.40
2023-05-15T12:00:27.784Z,11.60
2023-05-15T12:02:54.803Z,18.40
2023-05-15T12:05:21.962Z,18.20
2023-05-15T12:07:48.795Z,13.60
2023-05-15T12:10:15.747Z,15.80
2023-05-15T12:12:43.461Z,11.70
2023-05-15T12:15:11.367Z,8.70
2023-05-15T12:17:41.840Z,1.00
2023-05-15T12:20:15.684Z,1.00
2023-05-15T12:25:11.407Z,1.00
2023-05-15T12:27:41.339Z,1.00
2023-05-15T12:30:08.355Z,1.00
2023-05-15T12:32:36.262Z,1.00
2023-05-15T12:35:03.755Z,1.00
2023-05-15T12:37:35.135Z,1.00
2023-05-15T12:40:07.517Z,1.00
2023-05-15T12:42:41.502Z,1.00
2023-05-15T12:45:19.040Z,1.00
2023-05-15T12:47:46.505Z,1.00
2023-05-15T12:50:20.944Z,1.00
2023-05-15T12:52:51.144Z,1.00
2023-05-15T12:55:19.043Z,1.00
2023-05-15T12:57:47.871Z,1.00
2023-05-15T13:00:14.994Z,1.00
2023-05-15T13:02:45.424Z,1.00
2023-05-15T13:05:12.290Z,1.00
2023-05-15T13:07:42.213Z,1.00
2023-05-15T13:10:09.439Z,1.00
2023-05-15T13:12:37.647Z,1.00
2023-05-15T13:17:35.633Z,1.00
2023-05-15T13:20:02.450Z,1.00
2023-05-15T13:22:29.186Z,1.00
2023-05-15T13:24:57.001Z,1.00
2023-05-15T13:27:23.732Z,1.00
2023-05-15T13:29:51.018Z,1.00
2023-05-15T13:32:17.851Z,1.00
2023-05-15T13:34:44.604Z,1.00
2023-05-15T13:37:11.830Z,1.00
2023-05-15T13:39:39.188Z,1.00
2023-05-15T13:42:06.043Z,1.00
2023-05-15T13:44:32.761Z,1.00
2023-05-15T13:47:04.292Z,1.00
2023-05-15T13:49:31.622Z,1.00
2023-05-15T13:51:58.525Z,1.00
2023-05-15T13:54:25.307Z,1.00
2023-05-15T13:56:52.122Z,1.00
2023-05-15T13:59:18.807Z,1.00
2023-05-15T14:01:45.772Z,1.00
2023-05-15T14:04:12.536Z,1.00
2023-05-15T14:06:39.271Z,1.00
2023-05-15T14:09:07.340Z,1.00
2023-05-15T14:11:34.608Z,1.00
2023-05-15T14:14:01.338Z,1.00
2023-05-15T14:16:28.149Z,1.00
2023-05-15T14:18:54.919Z,1.00
2023-05-15T14:21:21.921Z,1.00
2023-05-15T14:23:48.605Z,1.00
2023-05-15T14:26:15.667Z,1.00
2023-05-15T14:28:42.662Z,1.00
2023-05-15T14:31:09.407Z,1.00
2023-05-15T14:33:36.109Z,1.00
2023-05-15T14:36:04.576Z,1.00
2023-05-15T14:38:32.457Z,1.00
2023-05-15T14:40:59.198Z,1.00
2023-05-15T14:43:25.927Z,1.00
2023-05-15T14:45:52.718Z,1.00
2023-05-15T14:48:19.802Z,1.00
2023-05-15T14:50:46.594Z,1.00
2023-05-15T14:53:13.323Z,1.00
2023-05-15T14:55:40.095Z,1.00
2023-05-15T14:58:07.218Z,1.00
2023-05-15T15:00:33.956Z,1.00
2023-05-15T15:03:02.599Z,1.00
2023-05-15T15:05:29.482Z,1.00
2023-05-15T15:08:07.342Z,1.00
2023-05-15T15:10:35.518Z,1.00
2023-05-15T15:13:02.472Z,1.00
2023-05-15T15:15:31.611Z,1.00
2023-05-15T15:17:58.525Z,1.00
2023-05-15T15:20:26.004Z,1.00
2023-05-15T15:22:53.385Z,1.00
2023-05-15T15:25:20.532Z,1.00
2023-05-15T15:27:47.898Z,1.00
2023-05-15T15:30:14.901Z,1.00
2023-05-15T15:32:42.184Z,1.00
2023-05-15T15:37:40.188Z,1.00
2023-05-15T15:40:07.633Z,1.00
2023-05-15T15:42:34.842Z,1.00
2023-05-15T15:45:01.778Z,1.00
2023-05-15T15:47:32.116Z,1.00
2023-05-15T15:50:15.563Z,1.00
2023-05-15T15:52:42.299Z,1.00
2023-05-15T15:55:09.575Z,1.00
2023-05-15T15:57:36.695Z,1.00
2023-05-15T16:00:04.035Z,1.00
2023-05-15T16:02:30.931Z,1.00
2023-05-15T16:04:57.745Z,1.00
2023-05-15T16:07:24.473Z,1.00
2023-05-15T16:10:03.734Z,1.00
2023-05-15T16:12:39.189Z,1.00
2023-05-15T16:15:20.902Z,1.00
2023-05-15T16:17:52.570Z,1.00
2023-05-15T16:22:20.649Z,1.00
2023-05-15T16:26:19.469Z,2.60
2023-05-15T16:33:07.483Z,17.70
2023-05-15T16:35:36.636Z,23.10
2023-05-15T16:38:04.419Z,22.60
2023-05-15T16:40:31.267Z,24.50
2023-05-15T16:42:58.167Z,28.80
2023-05-15T16:45:24.975Z,30.80
2023-05-15T16:47:51.786Z,39.40
2023-05-15T16:50:18.790Z,33.60
2023-05-15T16:52:47.551Z,40.30
2023-05-15T16:55:15.894Z,39.50
2023-05-15T16:57:45.827Z,40.90
2023-05-15T17:00:13.477Z,45.60
2023-05-15T17:02:41.791Z,48.10
2023-05-15T17:05:09.683Z,56.20
2023-05-15T17:07:37.513Z,57.90
2023-05-15T17:10:05.601Z,57.60
2023-05-15T17:12:32.365Z,58.30
2023-05-15T17:14:59.172Z,54.10
2023-05-15T17:17:26.052Z,51.40
2023-05-15T17:19:53.112Z,50.00
2023-05-15T17:22:20.195Z,42.60
2023-05-15T17:24:50.680Z,41.70
2023-05-15T17:27:18.701Z,36.00
2023-05-15T17:29:45.885Z,28.70
2023-05-15T17:32:12.963Z,27.80
2023-05-15T17:34:39.717Z,27.30
2023-05-15T17:37:06.467Z,26.60
2023-05-15T17:39:33.227Z,25.00
2023-05-15T17:42:00.178Z,26.20
2023-05-15T17:44:29.697Z,25.80
2023-05-15T17:47:45.753Z,25.60
2023-05-15T17:50:12.558Z,24.50
2023-05-15T17:53:24.115Z,24.20
2023-05-15T17:55:50.858Z,21.90
2023-05-15T17:58:17.619Z,22.10
2023-05-15T18:01:03.772Z,23.30
2023-05-15T18:03:30.716Z,24.10
2023-05-15T18:05:57.543Z,25.70
2023-05-15T18:08:24.242Z,27.20
2023-05-15T18:10:51.065Z,29.30
2023-05-15T18:13:17.840Z,30.90
2023-05-15T18:15:44.674Z,33.40
2023-05-15T18:18:11.545Z,34.60
2023-05-15T18:20:38.298Z,34.90
2023-05-15T18:24:37.089Z,37.20
2023-05-15T18:27:04.119Z,39.10
2023-05-15T18:29:30.860Z,40.50
2023-05-15T18:31:57.720Z,40.50
2023-05-15T18:34:24.649Z,42.10
2023-05-15T18:36:52.125Z,44.60
2023-05-15T18:39:19.280Z,45.60
2023-05-15T18:41:46.076Z,45.30
2023-05-15T18:44:12.783Z,46.00
2023-05-15T18:49:08.644Z,52.40
2023-05-15T18:51:35.720Z,53.40
2023-05-15T18:54:02.465Z,58.80
2023-05-15T18:57:57.228Z,66.80
2023-05-15T19:00:37.241Z,71.00
2023-05-15T19:04:15.532Z,72.50
2023-05-15T19:06:43.648Z,75.00
2023-05-15T19:10:29.356Z,76.80
2023-05-15T19:12:57.043Z,76.60
2023-05-15T19:15:23.959Z,76.00
2023-05-15T19:19:08.020Z,77.20
2023-05-15T19:21:34.958Z,78.80
2023-05-15T19:25:02.064Z,79.00
2023-05-15T19:27:28.805Z,78.80
2023-05-15T19:29:56.706Z,80.00
2023-05-15T19:32:23.769Z,79.50
2023-05-15T19:34:50.580Z,79.00
2023-05-15T19:37:17.665Z,79.80
2023-05-15T19:39:44.396Z,80.40
2023-05-15T19:42:11.116Z,81.20
2023-05-15T19:44:38.035Z,80.20
2023-05-15T19:47:04.787Z,79.80
2023-05-15T19:49:31.520Z,79.20
2023-05-15T19:51:58.225Z,77.70
2023-05-15T19:54:25.010Z,77.80
2023-05-15T19:56:51.732Z,78.20
2023-05-15T19:59:18.431Z,78.10
2023-05-15T20:01:45.186Z,78.70
2023-05-15T20:04:13.630Z,79.00
2023-05-15T20:06:40.426Z,79.00
2023-05-15T20:09:07.136Z,79.00
2023-05-15T20:11:33.891Z,78.70
2023-05-15T20:14:00.863Z,80.00
2023-05-15T20:16:27.646Z,79.40
2023-05-15T20:18:55.383Z,79.00
2023-05-15T20:21:22.144Z,79.50
2023-05-15T20:23:49.333Z,78.90
2023-05-15T20:26:16.069Z,80.00
2023-05-15T20:28:45.176Z,80.70
2023-05-15T20:31:12.294Z,82.50
2023-05-15T20:33:39.120Z,81.20
2023-05-15T20:36:06.091Z,81.60
2023-05-15T20:38:33.816Z,81.00
2023-05-15T20:41:00.783Z,80.90
2023-05-15T20:43:27.745Z,80.60
2023-05-15T20:45:54.980Z,79.30
2023-05-15T20:48:21.716Z,80.20
2023-05-15T20:50:49.501Z,80.30
2023-05-15T20:53:16.251Z,81.30
2023-05-15T20:55:43.048Z,82.10
2023-05-15T20:58:09.955Z,80.40
2023-05-15T21:00:36.737Z,78.00
2023-05-15T21:03:03.558Z,78.30
2023-05-15T21:05:30.394Z,78.30
2023-05-15T21:07:57.653Z,78.80
2023-05-15T21:10:24.661Z,79.00
2023-05-15T21:12:51.523Z,80.60
2023-05-15T21:15:18.339Z,81.60
2023-05-15T21:17:45.139Z,83.30
2023-05-15T21:20:12.160Z,83.20
2023-05-15T21:22:38.975Z,83.00
2023-05-15T21:25:06.208Z,84.70
2023-05-15T21:27:33.049Z,84.20
2023-05-15T21:29:59.798Z,84.90
2023-05-15T21:32:26.543Z,85.30
2023-05-15T21:34:53.389Z,86.40
2023-05-15T21:37:20.155Z,86.50
2023-05-15T21:39:46.928Z,85.40
2023-05-15T21:42:13.679Z,84.60
2023-05-15T21:44:40.498Z,86.70
2023-05-15T21:47:07.277Z,86.20
2023-05-15T21:49:33.990Z,87.60
2023-05-15T21:52:00.929Z,87.90
2023-05-15T21:54:27.651Z,88.80
2023-05-15T21:56:54.447Z,89.90
2023-05-15T21:59:21.631Z,90.70
2023-05-15T22:01:48.589Z,90.70
2023-05-15T22:04:15.540Z,90.00
2023-05-15T22:06:42.400Z,90.20
2023-05-15T22:09:09.933Z,89.30
2023-05-15T22:11:36.699Z,90.20
2023-05-15T22:14:03.459Z,89.30
2023-05-15T22:17:03.658Z,90.10
2023-05-15T22:19:33.395Z,90.00
2023-05-15T22:22:01.307Z,90.20
2023-05-15T22:24:51.329Z,90.50
2023-05-15T22:27:38.567Z,88.80
2023-05-15T22:30:06.883Z,90.40
2023-05-15T22:34:36.487Z,90.80
2023-05-15T22:39:35.338Z,90.30
2023-05-15T22:45:04.465Z,90.30
2023-05-15T22:47:31.445Z,91.10
2023-05-15T22:49:58.191Z,90.90
2023-05-15T22:52:58.693Z,91.00
2023-05-15T22:57:02.419Z,90.50
2023-05-15T22:59:29.162Z,90.50
2023-05-15T23:02:24.658Z,90.80
2023-05-15T23:12:01.463Z,90.60
2023-05-15T23:15:31.885Z,90.80
2023-05-15T23:20:10.602Z,90.70
2023-05-15T23:22:37.425Z,91.10
2023-05-15T23:25:04.591Z,91.20
2023-05-15T23:27:31.336Z,91.10
2023-05-15T23:29:58.111Z,91.00
2023-05-15T23:34:04.824Z,91.00
2023-05-15T23:36:31.568Z,90.40
2023-05-15T23:40:05.412Z,90.40
2023-05-15T23:43:23.478Z,90.50
2023-05-15T23:47:25.868Z,90.80
2023-05-15T23:49:52.788Z,90.90
2023-05-15T23:54:51.641Z,91.00
2023-05-15T23:57:18.356Z,91.20
